Meteo Giornale » Osservazioni meteo Italia » Decimomannu

ore: 22:55 - Osservazioni Meteo Decimomannu
Lat. 39° 21' N Lon. 8° 58' E Alt. 29 metri s.l.m.

sereno Europe/Rome

19 °C

Sereno

Temp. 24 Ore

10 °C

31 °C

Nord/Nord-Est

9.3 Km/h

Dew point 15 °C

Umidità 77 %

Visibilità  10 Km

Il sole sorge alle ore 06:07

Il sole tramonta alle ore 20:33

Data e Ora Cielo e Fenomeni T °C DP °C Um. % Pres. hPa Vis. km Vento km/h
Ieri h: 22:55 sereno Sereno 19 15 77 1011 10 N/NE 9.3
Ieri h: 20:55 sereno Sereno 23 12 49 1010 10 NO 9.3
Ieri h: 19:55 sereno Sereno 26 7 29 1009 10 SO 22.2
Ieri h: 18:55 sereno Sereno 28 8 28 1010 10 O/SO 25.9
Ieri h: 17:55 sereno Sereno 29 8 26 1010 10 O/SO 25.9
Ieri h: 16:55 sereno Sereno 30 7 23 1010 10 O/SO 18.5
Ieri h: 15:55 sereno Sereno 30 5 20 1011 10 O/SO 25.9
Ieri h: 14:55 sereno Sereno 30 5 20 1011 10 O/SO 25.9
Ieri h: 13:55 sereno Sereno 31 7 22 1012 10 SO 22.2
Ieri h: 12:55 sereno Sereno 29 9 28 1012 10 S 9.3
Ieri h: 11:55 sereno Sereno 28 9 30 1012 10 O 7.4
Ieri h: 10:55 sereno Sereno 25 9 36 1013 10 SO 7.4
Ieri h: 09:55 sereno Sereno 23 11 46 1013 10 N 3.7
Ieri h: 08:55 sereno Sereno 18 15 82 1013 10 N 5.5
Ieri h: 06:55 poco_nuvoloso Poco Nuvoloso 10 7 81 1013 10 SE 9.3
Ieri h: 05:55 poco_nuvoloso Poco Nuvoloso 10 8 87 1012 10 N 3.7
Ieri h: 04:55 sereno Sereno 10 9 93 1012 10 N 5.5
Ieri h: 02:55 sereno Sereno 12 11 93 1013 10 N 3.7
Ieri h: 01:55 sereno Sereno 13 12 93 1013 10 N 5.5
Ieri h: 00:55 sereno Sereno 14 12 87 1014 10 N 3.7